Terminal Aerodrome Forecast
Issued by NWS

Home | Current Version | Previous Version | Text Only | Print | Product List | Glossary On
Versions: 1 2 3 4 5 6 7 8 9 10 11 12 13 14 15 16 17 18 19
000
FTUS41 KBTV 212300
TAFMSS
TAF
KMSS 212330Z 2200/2224 05011KT P6SM VCSH OVC018
     FM220400 04010KT P6SM VCSH OVC020
     FM221200 04011KT P6SM VCSH BKN030 OVC050
     FM221800 04012KT P6SM VCSH SCT030 BKN050=

USA.gov is the U.S. government's official web portal to all federal, state and local government web resources and services.